createdAt,value
2022-08-31T00:01:21.005Z,50.30
2022-08-31T00:04:20.003Z,50.40
2022-08-31T00:06:46.670Z,50.40
2022-08-31T00:09:20.401Z,50.40
2022-08-31T00:11:47.041Z,50.50
2022-08-31T00:14:13.668Z,50.50
2022-08-31T00:16:40.584Z,50.50
2022-08-31T00:19:07.269Z,50.80
2022-08-31T00:21:35.068Z,50.80
2022-08-31T00:24:01.734Z,50.80
2022-08-31T00:26:28.318Z,50.90
2022-08-31T00:28:54.971Z,50.80
2022-08-31T00:31:21.604Z,51.10
2022-08-31T00:33:52.353Z,51.10
2022-08-31T00:36:20.038Z,51.10
2022-08-31T00:38:49.789Z,51.10
2022-08-31T00:41:17.047Z,51.10
2022-08-31T00:43:43.614Z,51.20
2022-08-31T00:46:10.935Z,51.10
2022-08-31T00:48:38.697Z,51.20
2022-08-31T00:51:05.363Z,51.30
2022-08-31T00:53:31.970Z,51.20
2022-08-31T00:55:58.648Z,51.20
2022-08-31T00:58:25.286Z,51.10
2022-08-31T01:00:51.989Z,51.00
2022-08-31T01:03:18.691Z,50.70
2022-08-31T01:05:45.488Z,50.60
2022-08-31T01:08:13.492Z,50.20
2022-08-31T01:10:40.413Z,50.30
2022-08-31T01:13:07.030Z,50.20
2022-08-31T01:15:33.630Z,50.30
2022-08-31T01:18:00.605Z,50.10
2022-08-31T01:20:48.821Z,50.20
2022-08-31T01:23:17.278Z,50.30
2022-08-31T01:25:44.454Z,50.50
2022-08-31T01:28:11.237Z,50.50
2022-08-31T01:30:37.890Z,50.50
2022-08-31T01:33:04.500Z,50.60
2022-08-31T01:35:31.149Z,50.70
2022-08-31T01:37:57.852Z,50.80
2022-08-31T01:40:34.425Z,50.80
2022-08-31T01:43:01.033Z,50.90
2022-08-31T01:45:27.655Z,50.90
2022-08-31T01:47:54.271Z,51.00
2022-08-31T01:50:20.896Z,51.10
2022-08-31T01:52:47.487Z,51.10
2022-08-31T01:55:14.142Z,51.20
2022-08-31T01:57:40.727Z,51.10
2022-08-31T02:00:08.517Z,51.10
2022-08-31T02:02:35.311Z,51.10
2022-08-31T02:05:02.025Z,51.10
2022-08-31T02:07:28.648Z,51.20
2022-08-31T02:09:55.243Z,51.10
2022-08-31T02:12:21.886Z,51.10
2022-08-31T02:14:48.508Z,50.90
2022-08-31T02:17:15.101Z,50.50
2022-08-31T02:19:41.689Z,50.40
2022-08-31T02:22:08.279Z,50.30
2022-08-31T02:24:34.917Z,50.00
2022-08-31T02:27:01.537Z,50.00
2022-08-31T02:29:28.120Z,50.30
2022-08-31T02:31:54.781Z,50.30
2022-08-31T02:34:21.367Z,50.20
2022-08-31T02:36:48.175Z,50.30
2022-08-31T02:39:15.057Z,50.40
2022-08-31T02:41:41.889Z,50.70
2022-08-31T02:44:10.590Z,50.50
2022-08-31T02:46:37.283Z,50.50
2022-08-31T02:49:03.940Z,50.80
2022-08-31T02:51:30.566Z,50.80
2022-08-31T02:53:57.240Z,50.70
2022-08-31T02:56:23.925Z,51.00
2022-08-31T02:58:54.944Z,50.90
2022-08-31T03:01:22.542Z,51.00
2022-08-31T03:03:49.644Z,51.10
2022-08-31T03:06:16.432Z,51.30
2022-08-31T03:08:43.020Z,51.10
2022-08-31T03:11:09.634Z,51.10
2022-08-31T03:13:37.593Z,51.10
2022-08-31T03:16:04.655Z,51.10
2022-08-31T03:18:31.349Z,51.10
2022-08-31T03:20:57.979Z,51.10
2022-08-31T03:23:24.615Z,51.20
2022-08-31T03:25:51.216Z,51.20
2022-08-31T03:28:17.840Z,51.10
2022-08-31T03:30:45.121Z,51.10
2022-08-31T03:33:11.814Z,50.70
2022-08-31T03:35:38.475Z,50.50
2022-08-31T03:38:05.462Z,48.80
2022-08-31T03:40:32.164Z,48.80
2022-08-31T03:42:58.929Z,49.80
2022-08-31T03:45:26.509Z,50.50
2022-08-31T03:47:53.269Z,50.70
2022-08-31T03:50:19.893Z,51.00
2022-08-31T03:52:46.480Z,51.50
2022-08-31T03:55:13.125Z,51.80
2022-08-31T03:57:39.803Z,52.10
2022-08-31T04:00:06.890Z,52.40
2022-08-31T04:02:37.512Z,52.40
2022-08-31T04:05:04.479Z,52.90
2022-08-31T04:07:38.420Z,53.00
2022-08-31T04:10:10.367Z,53.30
2022-08-31T04:12:36.974Z,53.30
2022-08-31T04:15:04.017Z,53.20
2022-08-31T04:17:30.740Z,53.30
2022-08-31T04:19:57.401Z,53.20
2022-08-31T04:22:25.060Z,53.40
2022-08-31T04:24:51.660Z,53.40
2022-08-31T04:27:18.277Z,53.40
2022-08-31T04:29:44.866Z,53.50
2022-08-31T04:32:11.480Z,53.60
2022-08-31T04:34:38.078Z,53.60
2022-08-31T04:37:04.816Z,53.80
2022-08-31T04:39:33.880Z,53.90
2022-08-31T04:42:00.767Z,53.80
2022-08-31T04:44:27.638Z,54.20
2022-08-31T04:46:55.172Z,53.90
2022-08-31T04:49:22.027Z,54.00
2022-08-31T04:51:48.647Z,54.60
2022-08-31T04:54:15.310Z,54.20
2022-08-31T04:56:43.204Z,55.30
2022-08-31T04:59:11.308Z,54.50
2022-08-31T05:01:43.467Z,54.90
2022-08-31T05:04:10.433Z,55.10
2022-08-31T05:06:37.438Z,56.00
2022-08-31T05:09:05.110Z,54.80
2022-08-31T05:11:31.945Z,54.90
2022-08-31T05:13:58.873Z,54.50
2022-08-31T05:16:25.509Z,54.20
2022-08-31T05:18:52.141Z,54.00
2022-08-31T05:21:28.484Z,53.80
2022-08-31T05:23:55.695Z,53.50
2022-08-31T05:26:26.892Z,53.40
2022-08-31T05:28:53.716Z,53.10
2022-08-31T05:31:21.455Z,53.10
2022-08-31T05:33:48.168Z,52.90
2022-08-31T05:36:14.959Z,52.60
2022-08-31T05:38:41.827Z,52.60
2022-08-31T05:41:08.506Z,52.20
2022-08-31T05:43:35.167Z,51.90
2022-08-31T05:46:05.536Z,52.00
2022-08-31T05:48:36.398Z,51.30
2022-08-31T05:51:03.977Z,50.90
2022-08-31T05:53:31.211Z,50.80
2022-08-31T05:55:58.857Z,50.70
2022-08-31T05:58:25.474Z,50.70
2022-08-31T06:00:52.149Z,50.80
2022-08-31T06:03:18.965Z,50.90
2022-08-31T06:05:45.835Z,51.10
2022-08-31T06:08:15.330Z,50.90
2022-08-31T06:10:42.118Z,51.00
2022-08-31T06:13:09.301Z,51.00
2022-08-31T06:15:35.913Z,51.20
2022-08-31T06:18:12.004Z,51.30
2022-08-31T06:20:39.348Z,52.20
2022-08-31T06:23:06.234Z,51.40
2022-08-31T06:25:33.183Z,51.60
2022-08-31T06:27:59.784Z,51.60
2022-08-31T06:30:27.625Z,51.70
2022-08-31T06:32:58.461Z,51.80
2022-08-31T06:35:25.576Z,51.70
2022-08-31T06:37:53.103Z,51.80
2022-08-31T06:40:19.874Z,51.80
2022-08-31T06:42:46.509Z,51.80
2022-08-31T06:45:13.158Z,51.90
2022-08-31T06:47:39.871Z,51.90
2022-08-31T06:50:06.697Z,51.90
2022-08-31T06:52:38.258Z,51.90
2022-08-31T06:55:06.111Z,51.90
2022-08-31T06:57:32.947Z,51.90
2022-08-31T07:00:02.293Z,51.80
2022-08-31T07:02:30.697Z,51.90
2022-08-31T07:04:57.365Z,51.90
2022-08-31T07:07:23.977Z,51.60
2022-08-31T07:09:50.659Z,51.30
2022-08-31T07:12:17.269Z,51.10
2022-08-31T07:14:54.483Z,50.80
2022-08-31T07:17:22.046Z,50.50
2022-08-31T07:19:48.668Z,50.40
2022-08-31T07:22:15.718Z,50.20
2022-08-31T07:24:42.440Z,50.40
2022-08-31T07:27:10.141Z,50.40
2022-08-31T07:29:40.431Z,50.40
2022-08-31T07:32:08.162Z,50.50
2022-08-31T07:34:36.193Z,50.50
2022-08-31T07:37:21.553Z,50.60
2022-08-31T07:40:08.082Z,50.70
2022-08-31T07:42:38.708Z,50.90
2022-08-31T07:45:06.018Z,51.00
2022-08-31T07:47:35.927Z,51.00
2022-08-31T07:50:02.543Z,51.10
2022-08-31T07:52:32.367Z,51.10
2022-08-31T07:55:07.845Z,51.20
2022-08-31T07:57:44.040Z,51.40
2022-08-31T08:00:10.869Z,51.30
2022-08-31T08:02:40.573Z,51.40
2022-08-31T08:05:11.036Z,51.40
2022-08-31T08:07:38.117Z,51.40
2022-08-31T08:10:06.500Z,51.60
2022-08-31T08:12:36.302Z,51.40
2022-08-31T08:15:06.921Z,51.60
2022-08-31T08:17:33.543Z,51.50
2022-08-31T08:20:00.172Z,51.60
2022-08-31T08:22:50.950Z,51.50
2022-08-31T08:25:13.532Z,51.60
2022-08-31T08:27:43.263Z,52.40
2022-08-31T08:30:13.142Z,51.50
2022-08-31T08:32:42.817Z,51.30
2022-08-31T08:35:10.109Z,51.10
2022-08-31T08:37:57.405Z,50.70
2022-08-31T08:40:46.163Z,50.40
2022-08-31T08:43:16.185Z,50.20
2022-08-31T08:45:43.593Z,50.00
2022-08-31T08:48:11.275Z,50.10
2022-08-31T08:50:38.823Z,50.20
2022-08-31T08:53:06.267Z,50.30
2022-08-31T08:55:37.644Z,50.50
2022-08-31T08:58:05.919Z,50.40
2022-08-31T09:00:33.345Z,50.40
2022-08-31T09:03:20.582Z,50.50
2022-08-31T09:05:53.291Z,50.50
2022-08-31T09:08:41.584Z,50.80
2022-08-31T09:11:17.668Z,50.80
2022-08-31T09:13:49.120Z,51.10
2022-08-31T09:16:40.963Z,51.10
2022-08-31T09:19:08.765Z,51.10
2022-08-31T09:21:37.266Z,51.10
2022-08-31T09:24:03.913Z,51.00
2022-08-31T09:26:32.769Z,51.10
2022-08-31T09:29:03.805Z,51.10
2022-08-31T09:31:37.284Z,51.20
2022-08-31T09:34:08.557Z,51.20
2022-08-31T09:36:41.243Z,51.20
2022-08-31T09:39:19.051Z,51.30
2022-08-31T09:41:46.127Z,51.40
2022-08-31T09:44:32.281Z,51.40
2022-08-31T09:47:01.475Z,51.40
2022-08-31T09:49:33.594Z,51.90
2022-08-31T09:52:15.733Z,51.10
2022-08-31T09:55:01.284Z,50.90
2022-08-31T09:57:54.003Z,50.60
2022-08-31T10:00:33.215Z,50.50
2022-08-31T10:03:19.763Z,50.20
2022-08-31T10:05:46.809Z,50.00
2022-08-31T10:08:19.504Z,50.00
2022-08-31T10:10:47.116Z,50.00
2022-08-31T10:13:13.680Z,50.10
2022-08-31T10:15:42.803Z,50.20
2022-08-31T10:18:17.649Z,50.30
2022-08-31T10:20:48.463Z,50.50
2022-08-31T10:23:15.159Z,50.40
2022-08-31T10:25:46.087Z,50.50
2022-08-31T10:28:14.772Z,50.60
2022-08-31T10:30:50.555Z,50.80
2022-08-31T10:33:18.300Z,50.90
2022-08-31T10:35:55.163Z,50.90
2022-08-31T10:38:26.732Z,51.10
2022-08-31T10:41:01.946Z,51.00
2022-08-31T10:43:31.760Z,51.10
2022-08-31T10:45:59.690Z,51.10
2022-08-31T10:48:26.422Z,51.00
2022-08-31T10:50:53.361Z,51.10
2022-08-31T10:53:22.975Z,51.10
2022-08-31T10:55:58.560Z,51.10
2022-08-31T10:58:28.281Z,50.80
2022-08-31T11:01:04.142Z,50.50
2022-08-31T11:03:49.590Z,50.50
2022-08-31T11:06:19.230Z,50.20
2022-08-31T11:09:01.238Z,49.90
2022-08-31T11:11:31.127Z,50.00
2022-08-31T11:14:00.252Z,50.10
2022-08-31T11:16:27.064Z,50.10
2022-08-31T11:19:09.413Z,50.20
2022-08-31T11:21:42.867Z,50.20
2022-08-31T11:24:28.458Z,50.40
2022-08-31T11:26:57.707Z,50.50
2022-08-31T11:29:30.477Z,50.40
2022-08-31T11:31:58.289Z,50.50
2022-08-31T11:34:26.515Z,50.50
2022-08-31T11:36:54.973Z,50.80
2022-08-31T11:39:27.139Z,50.80
2022-08-31T11:41:54.031Z,50.90
2022-08-31T11:44:34.218Z,51.10
2022-08-31T11:47:01.199Z,51.00
2022-08-31T11:49:36.189Z,51.10
2022-08-31T11:52:05.878Z,51.10
2022-08-31T11:54:41.563Z,51.10
2022-08-31T11:57:15.462Z,51.10
2022-08-31T11:59:46.171Z,50.90
2022-08-31T12:02:19.103Z,50.50
2022-08-31T12:04:48.465Z,50.50
2022-08-31T12:07:15.551Z,50.30
2022-08-31T12:09:57.566Z,50.00
2022-08-31T12:12:30.229Z,50.50
2022-08-31T12:15:15.820Z,49.70
2022-08-31T12:18:08.723Z,49.90
2022-08-31T12:21:07.313Z,50.00
2022-08-31T12:23:39.577Z,49.90
2022-08-31T12:26:12.623Z,50.10
2022-08-31T12:28:58.062Z,50.10
2022-08-31T12:31:24.750Z,50.80
2022-08-31T12:33:54.380Z,50.30
2022-08-31T12:36:24.806Z,50.50
2022-08-31T12:39:10.958Z,50.40
2022-08-31T12:41:43.262Z,50.40
2022-08-31T12:44:14.104Z,50.70
2022-08-31T12:46:41.134Z,50.70
2022-08-31T12:49:22.866Z,50.80
2022-08-31T12:51:50.185Z,50.80
2022-08-31T12:54:37.101Z,50.90
2022-08-31T12:57:26.966Z,51.00
2022-08-31T13:00:07.235Z,51.00
2022-08-31T13:02:35.763Z,51.00
2022-08-31T13:05:02.638Z,50.90
2022-08-31T13:07:33.161Z,50.50
2022-08-31T13:10:05.996Z,50.50
2022-08-31T13:12:32.626Z,50.20
2022-08-31T13:14:59.232Z,50.00
2022-08-31T13:17:25.849Z,50.40
2022-08-31T13:19:53.296Z,49.70
2022-08-31T13:22:33.356Z,49.80
2022-08-31T13:25:31.814Z,50.00
2022-08-31T13:27:58.453Z,49.90
2022-08-31T13:30:25.904Z,50.00
2022-08-31T13:32:54.685Z,50.00
2022-08-31T13:35:22.239Z,50.10
2022-08-31T13:37:53.975Z,50.20
2022-08-31T13:40:23.802Z,50.30
2022-08-31T13:42:55.540Z,50.40
2022-08-31T13:45:31.049Z,50.50
2022-08-31T13:47:59.347Z,50.40
2022-08-31T13:50:52.711Z,50.60
2022-08-31T13:53:39.854Z,50.60
2022-08-31T13:56:39.842Z,50.80
2022-08-31T13:59:24.962Z,50.80
2022-08-31T14:02:11.984Z,51.10
2022-08-31T14:05:00.260Z,51.00
2022-08-31T14:07:39.006Z,51.10
2022-08-31T14:10:26.503Z,51.00
2022-08-31T14:12:57.074Z,50.90
2022-08-31T14:15:38.836Z,50.60
2022-08-31T14:18:27.336Z,50.50
2022-08-31T14:21:23.768Z,50.20
2022-08-31T14:23:54.073Z,50.10
2022-08-31T14:26:22.876Z,50.00
2022-08-31T14:28:53.325Z,50.10
2022-08-31T14:31:42.919Z,50.10
2022-08-31T14:34:11.790Z,50.20
2022-08-31T14:36:46.040Z,50.20
2022-08-31T14:39:12.641Z,50.50
2022-08-31T14:41:39.279Z,50.50
2022-08-31T14:44:09.477Z,50.60
2022-08-31T14:46:37.059Z,50.70
2022-08-31T14:49:07.195Z,50.90
2022-08-31T14:51:43.410Z,50.90
2022-08-31T14:54:10.287Z,51.00
2022-08-31T14:56:45.363Z,51.10
2022-08-31T14:59:16.005Z,51.20
2022-08-31T15:01:49.184Z,51.20
2022-08-31T15:04:17.249Z,51.10
2022-08-31T15:06:47.211Z,51.20
2022-08-31T15:09:13.951Z,51.30
2022-08-31T15:11:41.064Z,51.10
2022-08-31T15:14:12.440Z,51.30
2022-08-31T15:16:43.600Z,50.70
2022-08-31T15:19:13.112Z,50.80
2022-08-31T15:21:52.168Z,50.50
2022-08-31T15:27:51.678Z,50.20
2022-08-31T15:30:19.020Z,50.30
2022-08-31T15:32:48.012Z,50.40
2022-08-31T15:35:17.842Z,50.40
2022-08-31T15:37:56.565Z,50.70
2022-08-31T15:40:23.566Z,51.30
2022-08-31T15:42:50.949Z,50.60
2022-08-31T15:45:17.619Z,50.50
2022-08-31T15:48:15.299Z,50.50
2022-08-31T15:50:52.699Z,50.70
2022-08-31T15:53:21.655Z,50.80
2022-08-31T15:55:49.102Z,50.80
2022-08-31T15:58:16.274Z,51.10
2022-08-31T16:00:43.026Z,50.90
2022-08-31T16:03:09.849Z,50.80
2022-08-31T16:05:39.887Z,50.90
2022-08-31T16:08:10.275Z,51.10
2022-08-31T16:10:40.021Z,50.90
2022-08-31T16:13:09.479Z,50.60
2022-08-31T16:15:36.839Z,50.40
2022-08-31T16:18:05.140Z,49.90
2022-08-31T16:20:32.537Z,49.70
2022-08-31T16:23:00.666Z,49.30
2022-08-31T16:25:47.293Z,49.00
2022-08-31T16:28:15.746Z,48.90
2022-08-31T16:30:43.970Z,49.30
2022-08-31T16:33:12.076Z,49.30
2022-08-31T16:35:39.176Z,49.40
2022-08-31T16:38:07.158Z,49.40
2022-08-31T16:40:34.268Z,49.70
2022-08-31T16:43:01.632Z,49.40
2022-08-31T16:45:28.379Z,49.50
2022-08-31T16:48:15.134Z,49.70
2022-08-31T16:50:47.672Z,49.70
2022-08-31T16:53:18.025Z,49.80
2022-08-31T16:55:45.487Z,49.90
2022-08-31T16:58:29.634Z,50.00
2022-08-31T17:01:02.354Z,51.00
2022-08-31T17:03:29.032Z,50.30
2022-08-31T17:05:57.032Z,50.10
2022-08-31T17:08:23.949Z,50.20
2022-08-31T17:10:51.347Z,50.20
2022-08-31T17:13:17.992Z,50.00
2022-08-31T17:15:44.747Z,49.80
2022-08-31T17:18:11.439Z,49.40
2022-08-31T17:20:40.173Z,49.00
2022-08-31T17:23:06.890Z,48.90
2022-08-31T17:25:35.791Z,48.50
2022-08-31T17:28:07.515Z,48.80
2022-08-31T17:30:34.532Z,48.60
2022-08-31T17:33:01.576Z,48.80
2022-08-31T17:35:29.131Z,48.90
2022-08-31T17:37:56.533Z,48.90
2022-08-31T17:40:23.269Z,49.10
2022-08-31T17:42:52.013Z,49.00
2022-08-31T17:45:19.145Z,49.00
2022-08-31T17:47:45.864Z,49.10
2022-08-31T17:50:14.079Z,48.90
2022-08-31T17:52:40.908Z,49.30
2022-08-31T17:55:13.058Z,49.20
2022-08-31T17:57:41.715Z,49.50
2022-08-31T18:00:14.577Z,49.30
2022-08-31T18:02:41.308Z,50.00
2022-08-31T18:05:09.482Z,49.40
2022-08-31T18:07:38.710Z,49.40
2022-08-31T18:10:10.877Z,49.50
2022-08-31T18:12:41.238Z,49.00
2022-08-31T18:15:10.457Z,48.80
2022-08-31T18:17:37.216Z,48.60
2022-08-31T18:20:22.397Z,48.30
2022-08-31T18:22:52.443Z,48.10
2022-08-31T18:25:19.351Z,48.60
2022-08-31T18:27:48.519Z,48.20
2022-08-31T18:30:15.660Z,48.20
2022-08-31T18:32:47.287Z,48.40
2022-08-31T18:35:16.476Z,48.40
2022-08-31T18:37:43.216Z,48.80
2022-08-31T18:40:28.817Z,48.80
2022-08-31T18:43:14.266Z,48.70
2022-08-31T18:45:40.923Z,48.80
2022-08-31T18:48:24.310Z,49.10
2022-08-31T18:50:51.749Z,49.70
2022-08-31T18:53:29.254Z,49.80
2022-08-31T18:56:05.104Z,50.10
2022-08-31T18:58:31.789Z,50.20
2022-08-31T19:01:01.569Z,50.10
2022-08-31T19:03:28.442Z,49.90
2022-08-31T19:05:56.827Z,49.90
2022-08-31T19:08:24.034Z,50.10
2022-08-31T19:10:51.392Z,49.90
2022-08-31T19:13:18.198Z,50.70
2022-08-31T19:15:45.760Z,50.10
2022-08-31T19:18:13.963Z,50.10
2022-08-31T19:20:40.823Z,50.20
2022-08-31T19:23:08.312Z,50.00
2022-08-31T19:25:42.250Z,49.80
2022-08-31T19:28:08.983Z,49.60
2022-08-31T19:30:36.425Z,49.50
2022-08-31T19:33:07.537Z,49.10
2022-08-31T19:35:36.134Z,48.90
2022-08-31T19:38:03.065Z,48.60
2022-08-31T19:40:38.140Z,48.60
2022-08-31T19:45:53.623Z,49.30
2022-08-31T19:48:24.155Z,48.60
2022-08-31T19:50:53.471Z,48.70
2022-08-31T19:53:21.723Z,48.70
2022-08-31T19:55:50.800Z,48.70
2022-08-31T19:58:18.051Z,48.70
2022-08-31T20:00:44.888Z,48.80
2022-08-31T20:03:15.466Z,48.80
2022-08-31T20:05:43.691Z,49.00
2022-08-31T20:08:10.730Z,48.90
2022-08-31T20:10:46.142Z,48.80
2022-08-31T20:13:14.436Z,48.90
2022-08-31T20:15:43.649Z,48.80
2022-08-31T20:18:11.886Z,49.10
2022-08-31T20:20:48.413Z,49.70
2022-08-31T20:23:16.673Z,49.20
2022-08-31T20:25:47.370Z,49.10
2022-08-31T20:28:16.115Z,49.20
2022-08-31T20:30:43.860Z,49.10
2022-08-31T20:33:11.851Z,49.80
2022-08-31T20:35:47.632Z,49.20
2022-08-31T20:38:15.282Z,49.10
2022-08-31T20:40:43.403Z,49.20
2022-08-31T20:43:13.591Z,49.30
2022-08-31T20:45:40.762Z,49.40
2022-08-31T20:48:27.218Z,49.30
2022-08-31T20:50:56.034Z,49.00
2022-08-31T20:53:42.479Z,49.30
2022-08-31T20:56:16.919Z,48.40
2022-08-31T20:58:45.032Z,48.80
2022-08-31T21:01:14.127Z,47.80
2022-08-31T21:03:42.130Z,47.90
2022-08-31T21:06:11.333Z,47.90
2022-08-31T21:08:38.812Z,47.90
2022-08-31T21:11:12.625Z,48.00
2022-08-31T21:13:39.352Z,48.10
2022-08-31T21:16:06.053Z,48.20
2022-08-31T21:18:34.819Z,48.30
2022-08-31T21:21:06.615Z,48.40
2022-08-31T21:23:34.933Z,48.50
2022-08-31T21:26:01.602Z,48.50
2022-08-31T21:28:28.176Z,48.60
2022-08-31T21:31:07.194Z,48.80
2022-08-31T21:33:43.537Z,48.90
2022-08-31T21:36:10.943Z,49.00
2022-08-31T21:38:37.874Z,49.00
2022-08-31T21:41:04.975Z,49.10
2022-08-31T21:43:32.566Z,49.20
2022-08-31T21:45:59.866Z,49.30
2022-08-31T21:48:26.566Z,49.40
2022-08-31T21:50:53.244Z,49.30
2022-08-31T21:53:19.987Z,49.40
2022-08-31T21:55:46.740Z,49.40
2022-08-31T21:58:13.712Z,49.40
2022-08-31T22:00:42.165Z,49.40
2022-08-31T22:03:08.873Z,49.50
2022-08-31T22:05:39.662Z,49.50
2022-08-31T22:08:06.288Z,49.50
2022-08-31T22:10:40.883Z,49.60
2022-08-31T22:13:08.777Z,49.90
2022-08-31T22:15:36.698Z,49.70
2022-08-31T22:18:46.109Z,49.50
2022-08-31T22:20:53.123Z,49.20
2022-08-31T22:23:19.897Z,48.90
2022-08-31T22:25:46.577Z,48.70
2022-08-31T22:28:14.628Z,48.50
2022-08-31T22:30:42.707Z,48.50
2022-08-31T22:33:09.392Z,48.40
2022-08-31T22:35:39.437Z,48.60
2022-08-31T22:38:09.049Z,48.60
2022-08-31T22:40:37.051Z,48.70
2022-08-31T22:43:05.668Z,49.00
2022-08-31T22:45:32.510Z,49.10
2022-08-31T22:47:59.117Z,49.10
2022-08-31T22:50:25.799Z,49.20
2022-08-31T22:52:52.410Z,49.40
2022-08-31T22:55:19.007Z,49.40
2022-08-31T22:57:45.624Z,49.60
2022-08-31T23:00:12.410Z,49.60
2022-08-31T23:02:44.837Z,49.60
2022-08-31T23:05:12.654Z,49.60
2022-08-31T23:07:39.514Z,50.40
2022-08-31T23:10:06.566Z,49.80
2022-08-31T23:12:35.216Z,49.80
2022-08-31T23:15:02.658Z,49.80
2022-08-31T23:17:29.253Z,49.80
2022-08-31T23:19:55.852Z,49.80
2022-08-31T23:22:24.517Z,49.80
2022-08-31T23:24:51.758Z,49.80
2022-08-31T23:27:19.328Z,49.80
2022-08-31T23:29:47.797Z,49.90
2022-08-31T23:32:16.557Z,49.90
2022-08-31T23:34:43.185Z,50.00
2022-08-31T23:37:10.353Z,50.00
2022-08-31T23:39:37.786Z,50.00
2022-08-31T23:42:04.654Z,50.20
2022-08-31T23:44:31.258Z,49.80
2022-08-31T23:46:58.664Z,49.60
2022-08-31T23:49:25.264Z,49.00
2022-08-31T23:51:51.861Z,49.00
2022-08-31T23:54:18.464Z,48.60
2022-08-31T23:56:46.767Z,48.60
2022-08-31T23:59:15.459Z,48.70
